Time;durP1;ratioP1;P1;durP2;ratioP2;P2;SDS_P1;SDS_P2;PMS_P1;PMS_P2;Temp;Humidity;BMP_temperature;BMP_pressure;BME280_temperature;BME280_humidity;BME280_pressure;Samples;Min_cycle;Max_cycle;Signal;HPM_P1;HPM_P2
2021/01/21 00:02:35;;;;;;;5.65;4.85;;;;;;;4.89;68.71;97960.75;1803779;79;20936;-62
2021/01/21 00:05:06;;;;;;;6.30;5.35;;;;;;;4.96;68.56;97954.62;1803855;79;20877;-62
2021/01/21 00:07:33;;;;;;;6.45;5.85;;;;;;;4.99;68.47;97953.61;1803864;79;21312;-61
2021/01/21 00:10:02;;;;;;;5.08;4.58;;;;;;;5.00;68.50;97956.19;1795293;79;20968;-61
2021/01/21 00:12:32;;;;;;;4.92;4.37;;;;;;;4.98;68.38;97932.80;1792540;79;21362;-61
2021/01/21 00:15:01;;;;;;;4.90;4.40;;;;;;;5.01;68.25;97944.61;1792511;80;20945;-61
2021/01/21 00:29:15;;;;;;;4.45;4.05;;;;;;;5.10;66.87;97925.94;1792517;80;21409;-63
2021/01/21 00:31:42;;;;;;;3.52;3.20;;;;;;;5.12;66.77;97945.33;1792507;80;20906;-61
2021/01/21 00:42:39;;;;;;;3.95;3.17;;;;;;;5.30;65.78;97938.61;1792500;80;20921;-62
2021/01/21 00:45:11;;;;;;;2.47;2.27;;;;;;;5.32;65.22;97932.27;1792670;80;21360;-62
2021/01/21 00:47:38;;;;;;;3.45;3.15;;;;;;;5.36;65.05;97953.80;1792576;80;21473;-63
2021/01/21 00:50:08;;;;;;;4.03;2.85;;;;;;;5.38;65.24;97958.56;1792517;80;20925;-63
2021/01/21 00:52:35;;;;;;;3.80;3.40;;;;;;;5.38;65.25;97953.23;1792481;80;20917;-62
2021/01/21 00:55:04;;;;;;;4.10;3.30;;;;;;;5.36;65.35;97959.13;1792505;80;20901;-63
2021/01/21 00:57:32;;;;;;;3.17;2.83;;;;;;;5.33;65.40;97953.09;1792558;80;21273;-62
2021/01/21 01:13:23;;;;;;;3.90;2.77;;;;;;;5.28;65.77;97925.38;1799073;79;21407;-62
2021/01/21 01:15:53;;;;;;;3.05;2.50;;;;;;;5.30;65.85;97934.16;1797533;79;21355;-62
2021/01/21 01:28:02;;;;;;;3.47;2.85;;;;;;;5.30;65.27;97921.30;1797569;79;20976;-61
2021/01/21 02:41:35;;;;;;;2.20;2.00;;;;;;;5.11;67.01;97906.81;1797495;79;37451;-62
2021/01/21 02:44:07;;;;;;;1.77;1.62;;;;;;;5.09;67.24;97916.70;1797555;79;20937;-62
2021/01/21 02:46:36;;;;;;;1.95;1.70;;;;;;;5.11;67.21;97905.03;1797347;79;20865;-62
2021/01/21 02:49:05;;;;;;;2.77;1.65;;;;;;;5.14;67.20;97892.01;1797608;79;20929;-61
2021/01/21 02:52:09;;;;;;;2.40;2.00;;;;;;;5.14;67.17;97903.98;1797521;79;21185;-61
2021/01/21 02:54:57;;;;;;;1.98;1.77;;;;;;;5.15;67.06;97905.72;1797451;79;21011;-63
2021/01/21 02:57:38;;;;;;;1.85;1.47;;;;;;;5.18;66.95;97894.90;1797578;79;20925;-62
2021/01/21 03:00:08;;;;;;;1.67;1.47;;;;;;;5.21;66.90;97917.36;1797473;79;20885;-63
2021/01/21 03:02:48;;;;;;;1.98;1.85;;;;;;;5.23;66.88;97923.00;1797454;79;20913;-63
2021/01/21 03:05:17;;;;;;;1.40;1.30;;;;;;;5.28;66.87;97913.88;1777508;79;21369;-63
2021/01/21 03:07:44;;;;;;;2.10;1.50;;;;;;;5.30;66.92;97896.88;1797516;79;20938;-63
2021/01/21 03:10:18;;;;;;;1.82;1.50;;;;;;;5.34;66.85;97913.05;1797072;79;21005;-63
2021/01/21 03:12:55;;;;;;;1.40;1.30;;;;;;;5.37;66.77;97909.38;1776636;79;20874;-63
2021/01/21 03:15:24;;;;;;;1.52;1.35;;;;;;;5.38;66.70;97909.28;1797560;79;20905;-63
2021/01/21 03:17:57;;;;;;;1.80;1.45;;;;;;;5.38;66.75;97910.62;1796556;79;21263;-63
2021/01/21 03:20:27;;;;;;;2.05;1.65;;;;;;;5.40;66.75;97915.86;1797331;79;20946;-63
2021/01/21 03:22:55;;;;;;;2.65;1.98;;;;;;;5.39;66.91;97905.69;1797663;79;20901;-63
2021/01/21 03:25:22;;;;;;;2.05;1.85;;;;;;;5.41;66.92;97917.59;1797552;79;20870;-63
2021/01/21 03:27:51;;;;;;;2.22;1.80;;;;;;;5.41;66.95;97931.75;1796411;79;20992;-64
2021/01/21 03:30:22;;;;;;;1.90;1.45;;;;;;;5.40;67.05;97910.05;1797040;79;21133;-63
2021/01/21 03:32:50;;;;;;;2.05;1.57;;;;;;;5.40;67.30;97899.40;1797551;79;20961;-62
2021/01/21 03:35:19;;;;;;;1.95;1.75;;;;;;;5.38;67.77;97899.97;1797298;79;20985;-63
2021/01/21 03:37:48;;;;;;;2.08;1.67;;;;;;;5.39;67.89;97906.14;1797375;79;21016;-63
2021/01/21 03:40:17;;;;;;;2.00;1.40;;;;;;;5.38;67.97;97910.62;1774029;79;20894;-62
2021/01/21 03:42:50;;;;;;;2.00;1.70;;;;;;;5.38;68.13;97913.77;1797643;79;21649;-62
2021/01/21 03:45:23;;;;;;;2.87;1.92;;;;;;;5.35;67.99;97910.79;1792020;79;20932;-63
2021/01/21 03:47:52;;;;;;;1.87;1.57;;;;;;;5.35;68.16;97916.12;1797653;79;20969;-62
2021/01/21 03:50:20;;;;;;;2.40;1.77;;;;;;;5.34;68.05;97910.39;1797338;79;20976;-62
2021/01/21 03:52:48;;;;;;;1.90;1.60;;;;;;;5.35;67.98;97892.15;1797630;79;21071;-62
2021/01/21 03:55:19;;;;;;;1.87;1.60;;;;;;;5.38;67.86;97887.13;1797659;79;22166;-62
2021/01/21 03:57:48;;;;;;;4.17;2.05;;;;;;;5.38;67.82;97880.48;1796176;79;20996;-63
2021/01/21 04:00:19;;;;;;;1.90;1.55;;;;;;;5.37;67.64;97896.05;1796491;79;21047;-63
2021/01/21 04:02:49;;;;;;;2.10;1.90;;;;;;;5.35;67.44;97886.83;1797552;79;21000;-63
2021/01/21 04:05:20;;;;;;;1.62;1.47;;;;;;;5.36;67.40;97889.00;1797256;79;21078;-63
2021/01/21 04:07:49;;;;;;;1.60;1.50;;;;;;;5.36;67.19;97861.04;1797544;79;21347;-63
2021/01/21 04:10:18;;;;;;;1.60;1.40;;;;;;;5.37;67.12;97896.91;1797537;79;21011;-63
2021/01/21 04:12:47;;;;;;;1.82;1.47;;;;;;;5.40;67.11;97901.21;1796468;79;20929;-62
2021/01/21 04:15:15;;;;;;;1.65;1.55;;;;;;;5.41;67.08;97893.62;1797607;79;20904;-62
2021/01/21 04:17:44;;;;;;;2.42;2.00;;;;;;;5.40;66.98;97892.73;1797832;79;20923;-63
2021/01/21 04:20:13;;;;;;;2.75;1.70;;;;;;;5.39;66.92;97903.03;1797497;79;21110;-63
2021/01/21 04:22:42;;;;;;;1.98;1.77;;;;;;;5.40;66.85;97902.06;1797315;79;21004;-62
2021/01/21 04:25:13;;;;;;;3.12;2.27;;;;;;;5.40;66.83;97903.39;1797610;79;21000;-62
2021/01/21 04:27:42;;;;;;;3.30;1.85;;;;;;;5.41;66.81;97923.77;1797025;79;20937;-62
2021/01/21 04:30:13;;;;;;;3.67;1.70;;;;;;;5.39;66.74;97900.36;1797508;79;21019;-62
2021/01/21 04:32:41;;;;;;;2.58;1.90;;;;;;;5.39;66.83;97912.34;1797348;79;21235;-62
2021/01/21 04:35:13;;;;;;;2.87;2.27;;;;;;;5.40;66.69;97915.38;1797574;79;20937;-62
2021/01/21 04:37:42;;;;;;;1.65;1.50;;;;;;;5.37;66.75;97908.89;1797621;79;20980;-62
2021/01/21 04:40:12;;;;;;;2.27;1.95;;;;;;;5.36;66.81;97916.97;1796698;79;20973;-62
2021/01/21 04:42:41;;;;;;;2.15;1.90;;;;;;;5.36;67.00;97906.31;1797606;79;20952;-62
2021/01/21 04:45:12;;;;;;;2.45;1.90;;;;;;;5.39;66.94;97928.33;1797830;79;21349;-62
2021/01/21 04:47:42;;;;;;;2.83;2.10;;;;;;;5.42;66.85;97917.50;1797249;79;20948;-62
2021/01/21 04:50:19;;;;;;;2.50;2.10;;;;;;;5.42;66.89;97912.17;1796926;79;21382;-61
2021/01/21 04:52:56;;;;;;;2.62;2.42;;;;;;;5.45;66.87;97920.45;1776202;79;20916;-62
2021/01/21 04:55:30;;;;;;;3.17;2.30;;;;;;;5.48;66.80;97901.63;1797616;79;20905;-62
2021/01/21 04:58:19;;;;;;;2.17;1.98;;;;;;;5.47;66.76;97921.25;1783823;79;21213;-63
2021/01/21 05:00:48;;;;;;;2.65;2.22;;;;;;;5.47;66.67;97924.36;1775417;79;21043;-62
2021/01/21 05:03:17;;;;;;;2.25;2.00;;;;;;;5.45;66.68;97931.59;1797600;79;20925;-62
2021/01/21 05:06:03;;;;;;;2.15;1.95;;;;;;;5.45;66.66;97921.78;1797601;79;22009;-62
2021/01/21 05:08:32;;;;;;;2.22;2.02;;;;;;;5.45;66.64;97925.78;1797158;79;20984;-62
2021/01/21 05:11:03;;;;;;;2.40;1.60;;;;;;;5.42;66.51;97913.51;1795523;79;21195;-62
2021/01/21 05:13:33;;;;;;;2.50;1.87;;;;;;;5.45;66.41;97928.92;1796645;79;20936;-62
2021/01/21 05:16:15;;;;;;;2.20;2.00;;;;;;;5.47;66.26;97927.02;1794358;79;20936;-63
2021/01/21 05:18:50;;;;;;;2.08;1.80;;;;;;;5.48;66.20;97924.76;1795573;79;21067;-62
2021/01/21 05:21:40;;;;;;;3.80;2.92;;;;;;;5.41;66.13;97918.44;1730113;79;20988;-62
2021/01/21 05:24:13;;;;;;;2.40;2.20;;;;;;;5.34;66.28;97903.73;1794347;79;21377;-63
2021/01/21 05:26:51;;;;;;;2.50;1.90;;;;;;;5.29;66.36;97928.92;1789826;79;21032;-62
2021/01/21 05:29:52;;;;;;;2.92;2.52;;;;;;;5.29;66.57;97911.13;1842294;78;28401;-62
2021/01/21 05:32:22;;;;;;;2.83;2.40;;;;;;;5.21;66.60;97909.38;1817648;79;20920;-62
2021/01/21 05:34:55;;;;;;;2.77;2.45;;;;;;;5.20;66.60;97916.96;1754094;79;21364;-62
2021/01/21 05:37:25;;;;;;;2.27;1.90;;;;;;;5.17;66.65;97930.44;1816334;79;20947;-62
2021/01/21 05:40:06;;;;;;;1.92;1.57;;;;;;;5.10;66.75;97915.28;1737009;79;20939;-62
2021/01/21 05:42:53;;;;;;;3.00;1.70;;;;;;;5.09;66.88;97915.37;1789638;79;20912;-61
2021/01/21 05:45:26;;;;;;;2.15;1.92;;;;;;;5.06;66.92;97915.94;1815414;79;20915;-62
2021/01/21 05:48:01;;;;;;;2.62;2.42;;;;;;;5.07;66.90;97920.30;1816178;79;21197;-62
2021/01/21 05:50:29;;;;;;;3.00;2.15;;;;;;;5.12;66.82;97924.52;1817519;79;21002;-62
2021/01/21 05:52:59;;;;;;;2.65;1.77;;;;;;;5.13;66.73;97925.77;1784671;79;20991;-62
2021/01/21 05:55:29;;;;;;;2.50;1.90;;;;;;;5.14;66.71;97906.65;1784573;79;20984;-62
2021/01/21 05:58:01;;;;;;;3.47;2.22;;;;;;;5.15;66.67;97900.39;1760550;79;20924;-62
2021/01/21 06:00:30;;;;;;;2.60;2.05;;;;;;;5.14;66.69;97903.98;1759196;79;22261;-63
2021/01/21 06:03:00;;;;;;;4.17;2.70;;;;;;;5.13;66.69;97895.63;1754614;79;20975;-63
2021/01/21 06:05:31;;;;;;;5.17;3.15;;;;;;;5.13;66.63;97914.27;1808808;79;20972;-63
2021/01/21 06:08:01;;;;;;;2.45;1.90;;;;;;;5.06;66.73;97893.30;1784958;79;20964;-63
2021/01/21 06:10:28;;;;;;;3.20;2.27;;;;;;;5.05;66.80;97892.91;1729111;79;20963;-62
2021/01/21 06:12:55;;;;;;;2.87;1.70;;;;;;;5.06;66.88;97894.64;1817657;79;21925;-62
2021/01/21 06:15:23;;;;;;;2.08;1.72;;;;;;;5.09;66.83;97892.26;1817501;79;20916;-62
2021/01/21 06:17:50;;;;;;;2.50;1.67;;;;;;;5.14;66.61;97894.67;1817583;79;21011;-63
2021/01/21 06:20:38;;;;;;;2.05;1.40;;;;;;;5.17;66.61;97893.17;1815232;79;20983;-62
2021/01/21 06:23:11;;;;;;;2.52;1.90;;;;;;;5.16;66.51;97892.32;1809691;79;20980;-61
2021/01/21 06:25:41;;;;;;;2.47;1.90;;;;;;;5.19;66.42;97881.50;1816530;79;21396;-61
2021/01/21 06:28:09;;;;;;;1.90;1.70;;;;;;;5.20;66.37;97891.22;1816873;79;20948;-62
2021/01/21 06:30:38;;;;;;;2.08;1.87;;;;;;;5.26;66.23;97890.00;1815479;79;20984;-61
2021/01/21 06:33:07;;;;;;;2.08;1.87;;;;;;;5.30;66.09;97890.23;1815611;79;20912;-62
2021/01/21 06:35:47;;;;;;;1.98;1.52;;;;;;;5.32;65.94;97894.98;1815553;79;20900;-62
2021/01/21 06:38:23;;;;;;;1.50;1.40;;;;;;;5.34;65.80;97887.75;1815472;79;21466;-62
2021/01/21 06:40:53;;;;;;;2.30;2.00;;;;;;;5.39;65.68;97903.48;1814949;79;20959;-61
2021/01/21 06:43:25;;;;;;;2.70;2.05;;;;;;;5.46;65.57;97896.87;1814515;79;21446;-61
2021/01/21 06:45:57;;;;;;;2.27;2.00;;;;;;;5.52;65.60;97906.30;1814920;79;20904;-60
2021/01/21 06:48:26;;;;;;;1.75;1.40;;;;;;;5.56;65.33;97893.20;1814906;79;21028;-61
2021/01/21 06:50:54;;;;;;;1.92;1.47;;;;;;;5.60;64.97;97894.77;1814968;79;23574;-61
2021/01/21 06:53:21;;;;;;;2.02;1.67;;;;;;;5.66;64.85;97885.09;1814864;79;20925;-61
2021/01/21 06:55:50;;;;;;;2.30;1.57;;;;;;;5.74;64.70;97910.81;1814879;79;20992;-62
2021/01/21 06:58:55;;;;;;;1.85;1.75;;;;;;;5.83;64.41;97896.56;1814871;79;20964;-61
2021/01/21 07:01:40;;;;;;;1.92;1.20;;;;;;;5.88;64.00;97865.16;1815105;79;20869;-63
2021/01/21 07:04:21;;;;;;;1.50;1.40;;;;;;;5.98;63.72;97893.04;1813621;79;21367;-62
2021/01/21 07:07:07;;;;;;;2.80;1.50;;;;;;;6.06;63.44;97880.11;1814908;79;20909;-61
2021/01/21 07:09:36;;;;;;;2.07;1.43;;;;;;;6.15;63.16;97884.05;1815171;79;20884;-65
2021/01/21 07:12:05;;;;;;;1.42;1.20;;;;;;;6.24;62.82;97887.95;1814886;79;20904;-61
2021/01/21 07:14:36;;;;;;;1.98;1.57;;;;;;;6.35;62.06;97865.98;1814922;79;20932;-61
2021/01/21 07:17:06;;;;;;;2.77;1.60;;;;;;;6.46;62.03;97885.70;1814879;79;21306;-61
2021/01/21 07:19:38;;;;;;;2.17;1.67;;;;;;;6.53;62.03;97853.31;1813982;79;21003;-62
2021/01/21 07:22:20;;;;;;;2.10;1.60;;;;;;;6.59;61.60;97868.94;1814528;78;21425;-61
2021/01/21 07:24:56;;;;;;;4.80;2.00;;;;;;;6.64;61.25;97866.87;1814405;79;20972;-60
2021/01/21 07:27:29;;;;;;;2.02;1.65;;;;;;;6.69;61.02;97876.78;1814816;79;20861;-60
2021/01/21 07:30:22;;;;;;;1.47;1.37;;;;;;;6.73;61.02;97876.95;1810457;78;21008;-60
2021/01/21 07:33:21;;;;;;;2.72;2.30;;;;;;;6.78;60.94;97872.66;1814910;79;21425;-60
2021/01/21 07:36:03;;;;;;;3.02;2.45;;;;;;;6.87;60.67;97870.30;1842292;78;22848;-60
2021/01/21 07:38:48;;;;;;;2.60;2.12;;;;;;;6.87;60.87;97874.77;1785099;79;20900;-60
2021/01/21 07:41:48;;;;;;;2.92;2.30;;;;;;;6.88;60.54;97870.66;1809505;79;21201;-62
2021/01/21 07:44:16;;;;;;;2.00;1.60;;;;;;;6.91;60.52;97863.44;1817510;79;20920;-62
2021/01/21 07:46:44;;;;;;;2.45;2.00;;;;;;;6.92;60.56;97871.80;1817548;79;20873;-61
2021/01/21 07:49:28;;;;;;;2.52;1.98;;;;;;;6.94;60.43;97856.08;1817592;79;20904;-61
2021/01/21 07:52:05;;;;;;;3.52;1.72;;;;;;;6.96;60.51;97885.35;1817686;79;21338;-62
2021/01/21 07:54:49;;;;;;;2.52;2.12;;;;;;;6.97;60.57;97879.04;1817565;79;21131;-61
2021/01/21 07:57:23;;;;;;;2.25;1.92;;;;;;;7.00;60.60;97872.17;1817569;79;20920;-60
2021/01/21 07:59:59;;;;;;;2.20;2.00;;;;;;;7.01;60.56;97872.08;1817522;79;20972;-61
2021/01/21 08:02:49;;;;;;;3.33;2.20;;;;;;;7.04;60.47;97859.02;1817545;79;20869;-61
2021/01/21 08:05:22;;;;;;;1.98;1.77;;;;;;;7.07;60.46;97868.66;1817610;79;20931;-62
2021/01/21 08:07:57;;;;;;;3.12;2.40;;;;;;;7.10;60.31;97871.98;1817791;79;21363;-62
2021/01/21 08:10:26;;;;;;;2.40;2.20;;;;;;;7.13;60.01;97863.77;1817474;79;20930;-62
2021/01/21 08:13:04;;;;;;;2.52;1.80;;;;;;;7.19;60.13;97894.10;1817552;79;20928;-63
2021/01/21 08:15:35;;;;;;;3.22;2.12;;;;;;;7.26;59.83;97873.68;1817136;79;20999;-63
2021/01/21 08:18:16;;;;;;;4.05;2.02;;;;;;;7.31;59.48;97884.43;1817365;79;20916;-62
2021/01/21 08:20:45;;;;;;;2.55;1.80;;;;;;;7.38;59.61;97880.42;1816500;79;21630;-62
2021/01/21 08:23:15;;;;;;;1.98;1.67;;;;;;;7.42;59.27;97871.72;1817026;79;20983;-63
2021/01/21 08:25:48;;;;;;;2.00;1.65;;;;;;;7.45;59.37;97882.70;1817049;79;21018;-63
2021/01/21 08:28:18;;;;;;;2.40;2.20;;;;;;;7.47;58.82;97864.73;1817270;79;20975;-63
2021/01/21 08:30:49;;;;;;;2.20;1.57;;;;;;;7.51;58.89;97877.80;1817193;79;21011;-62
2021/01/21 08:33:28;;;;;;;2.47;1.82;;;;;;;7.55;58.76;97888.68;1817554;79;21361;-63
2021/01/21 08:36:03;;;;;;;2.35;1.85;;;;;;;7.58;58.46;97881.80;1815613;78;20943;-62
2021/01/21 08:38:42;;;;;;;1.60;1.50;;;;;;;7.67;58.18;97883.48;1815477;79;20995;-62
2021/01/21 08:41:14;;;;;;;2.10;1.80;;;;;;;7.71;58.17;97901.02;1815403;78;20983;-62
2021/01/21 08:43:47;;;;;;;2.02;1.82;;;;;;;7.75;57.96;97882.49;1815462;79;20909;-63
2021/01/21 08:46:20;;;;;;;3.10;2.25;;;;;;;7.79;57.62;97884.02;1814795;79;21473;-62
2021/01/21 08:48:50;;;;;;;2.30;1.72;;;;;;;7.80;57.89;97885.71;1814278;79;20924;-61
2021/01/21 08:51:35;;;;;;;3.17;2.17;;;;;;;7.83;57.52;97892.19;1814238;78;20959;-61
2021/01/21 08:54:20;;;;;;;2.62;2.15;;;;;;;7.87;57.68;97883.52;1814182;79;20995;-62
2021/01/21 08:57:11;;;;;;;1.90;1.45;;;;;;;7.85;57.25;97863.56;1814949;79;21338;-62
2021/01/21 08:59:39;;;;;;;3.90;1.52;;;;;;;7.89;57.37;97906.49;1814966;79;22315;-61
2021/01/21 09:02:09;;;;;;;2.27;1.75;;;;;;;7.93;57.24;97882.61;1814963;79;21011;-61
2021/01/21 09:04:38;;;;;;;3.55;2.00;;;;;;;7.96;57.56;97871.71;1815097;79;20975;-61
2021/01/21 09:07:08;;;;;;;1.80;1.67;;;;;;;8.01;57.10;97887.45;1814896;79;20869;-60
2021/01/21 09:09:38;;;;;;;2.25;1.72;;;;;;;8.01;56.87;97852.69;1814938;79;20927;-62
2021/01/21 09:12:22;;;;;;;2.05;1.82;;;;;;;8.04;56.97;97886.37;1814976;78;21314;-61
2021/01/21 09:15:14;;;;;;;2.40;1.90;;;;;;;8.10;57.17;97869.91;1814809;79;20972;-61
2021/01/21 09:17:41;;;;;;;2.50;1.82;;;;;;;8.12;57.14;97888.92;1814931;79;20964;-60
2021/01/21 09:20:27;;;;;;;2.47;2.08;;;;;;;8.14;57.08;97874.10;1814695;79;20998;-60
2021/01/21 09:23:14;;;;;;;2.22;1.92;;;;;;;8.15;57.25;97846.38;1814922;79;21003;-61
2021/01/21 09:25:42;;;;;;;;;;;;;;;8.16;56.96;97855.27;1817620;79;21381;-61
2021/01/21 09:28:11;;;;;;;2.08;1.87;;;;;;;8.17;56.96;97852.50;1814895;79;20129;-61
2021/01/21 09:30:40;;;;;;;3.15;2.80;;;;;;;8.18;56.90;97868.91;1814889;79;21457;-62
2021/01/21 09:33:09;;;;;;;2.75;2.10;;;;;;;8.21;57.00;97868.69;1814902;79;21031;-62
2021/01/21 09:35:41;;;;;;;2.55;2.00;;;;;;;8.21;56.54;97868.69;1822860;78;21023;-62
2021/01/21 09:38:10;;;;;;;2.47;1.87;;;;;;;8.24;56.53;97859.13;1828880;78;22116;-61
2021/01/21 09:40:38;;;;;;;2.72;1.75;;;;;;;8.26;56.03;97863.91;1828725;78;21513;-61
2021/01/21 09:43:05;;;;;;;3.37;1.40;;;;;;;8.26;56.15;97867.92;1828814;78;20876;-59
2021/01/21 09:45:34;;;;;;;2.27;1.80;;;;;;;8.28;55.79;97855.29;1828665;78;20911;-60
2021/01/21 09:48:03;;;;;;;2.25;1.72;;;;;;;8.29;55.92;97862.36;1828646;78;20951;-60
2021/01/21 09:50:31;;;;;;;3.77;1.77;;;;;;;8.30;55.81;97857.86;1828758;78;23509;-60
2021/01/21 09:52:59;;;;;;;2.45;1.82;;;;;;;8.32;55.47;97864.83;1828708;78;20987;-61
2021/01/21 09:55:28;;;;;;;3.45;2.17;;;;;;;8.32;55.52;97854.13;1828739;78;20919;-60
2021/01/21 09:57:56;;;;;;;2.35;1.75;;;;;;;8.36;55.76;97849.91;1828713;78;20924;-61
2021/01/21 10:00:24;;;;;;;2.47;2.25;;;;;;;8.36;55.48;97856.59;1828681;78;20915;-60
2021/01/21 10:02:52;;;;;;;2.85;2.05;;;;;;;8.37;55.56;97851.59;1828770;78;21426;-62
2021/01/21 10:05:23;;;;;;;3.20;2.00;;;;;;;8.39;55.48;97842.97;1828546;78;20995;-62
2021/01/21 10:07:54;;;;;;;1.72;1.30;;;;;;;8.39;55.28;97842.97;1828803;78;21361;-60
2021/01/21 10:10:23;;;;;;;2.85;2.00;;;;;;;8.43;55.32;97828.42;1828752;78;21472;-60
2021/01/21 10:12:52;;;;;;;3.45;2.10;;;;;;;8.47;55.00;97832.15;1828500;78;20971;-61
2021/01/21 10:15:22;;;;;;;2.40;2.10;;;;;;;8.53;54.96;97840.25;1828178;78;22194;-61
2021/01/21 10:17:50;;;;;;;2.65;1.67;;;;;;;8.61;54.72;97814.28;1827387;78;21275;-61
2021/01/21 10:20:18;;;;;;;3.25;1.95;;;;;;;8.67;54.61;97817.38;1828196;78;21034;-60
2021/01/21 10:22:47;;;;;;;2.30;1.60;;;;;;;8.78;54.58;97827.78;1828505;78;20987;-60
2021/01/21 10:25:14;;;;;;;1.60;1.50;;;;;;;8.85;54.10;97804.97;1828634;78;21323;-59
2021/01/21 10:27:41;;;;;;;2.52;2.00;;;;;;;8.89;53.53;97809.12;1828527;78;21126;-61
2021/01/21 10:30:13;;;;;;;2.17;1.98;;;;;;;8.95;53.61;97818.05;1828443;78;21030;-61
2021/01/21 10:32:42;;;;;;;1.82;1.20;;;;;;;8.97;52.99;97813.93;1828694;78;21051;-61
2021/01/21 10:35:13;;;;;;;2.08;1.77;;;;;;;9.00;52.67;97811.03;1824566;78;20952;-61
2021/01/21 10:37:42;;;;;;;2.20;1.80;;;;;;;9.02;53.33;97818.00;1814914;79;21402;-60
2021/01/21 10:40:11;;;;;;;2.40;2.02;;;;;;;9.04;53.39;97799.98;1814711;78;22359;-61
2021/01/21 10:42:39;;;;;;;1.95;1.72;;;;;;;9.04;53.22;97794.62;1814065;79;21611;-61
2021/01/21 10:45:09;;;;;;;2.00;1.70;;;;;;;9.04;53.09;97810.70;1814628;79;20904;-60
2021/01/21 10:47:38;;;;;;;3.05;1.72;;;;;;;9.04;53.17;97798.64;1814753;78;21081;-60
2021/01/21 10:50:08;;;;;;;2.37;1.40;;;;;;;9.04;53.08;97807.17;1814779;79;20909;-60
2021/01/21 10:52:36;;;;;;;3.42;1.98;;;;;;;9.00;53.21;97790.48;1814709;79;21492;-61
2021/01/21 10:55:05;;;;;;;2.50;2.22;;;;;;;8.97;52.64;97796.06;1814155;79;21017;-60
2021/01/21 10:57:33;;;;;;;3.05;2.08;;;;;;;8.94;52.85;97777.53;1813803;78;21019;-60
2021/01/21 11:00:00;;;;;;;2.60;1.50;;;;;;;8.90;52.79;97774.69;1814100;79;20975;-60
2021/01/21 11:02:29;;;;;;;3.22;2.00;;;;;;;8.90;52.81;97785.41;1814782;79;20932;-60
2021/01/21 11:04:57;;;;;;;3.30;1.70;;;;;;;8.88;53.37;97781.98;1814671;79;21187;-61
2021/01/21 11:07:25;;;;;;;3.12;1.50;;;;;;;8.85;53.20;97783.55;1814392;79;20944;-61
2021/01/21 11:09:54;;;;;;;3.33;2.12;;;;;;;8.82;52.90;97784.61;1814429;79;20901;-61
2021/01/21 11:12:21;;;;;;;2.65;1.85;;;;;;;8.81;53.18;97773.55;1814555;79;20951;-60
2021/01/21 11:14:51;;;;;;;2.58;1.98;;;;;;;8.81;53.44;97793.64;1814768;79;20964;-61
2021/01/21 11:17:18;;;;;;;2.40;1.77;;;;;;;8.79;53.24;97775.95;1814788;79;21183;-61
2021/01/21 11:19:49;;;;;;;1.80;1.70;;;;;;;8.78;53.35;97768.87;1814804;79;20928;-61
2021/01/21 11:22:18;;;;;;;2.92;2.15;;;;;;;8.77;53.36;97763.17;1814863;79;21034;-61
2021/01/21 11:24:45;;;;;;;2.00;1.52;;;;;;;8.76;53.41;97778.85;1814904;79;21299;-61
2021/01/21 11:27:13;;;;;;;3.02;1.50;;;;;;;8.76;52.99;97752.92;1814838;79;20919;-60
2021/01/21 11:29:40;;;;;;;2.58;1.47;;;;;;;8.76;53.65;97749.41;1814831;79;21371;-60
2021/01/21 11:32:08;;;;;;;2.10;1.62;;;;;;;8.73;53.31;97754.48;1814824;79;20951;-61
2021/01/21 11:34:36;;;;;;;2.52;1.80;;;;;;;8.73;53.38;97752.30;1814765;79;20940;-60
2021/01/21 11:37:03;;;;;;;2.02;1.67;;;;;;;8.74;53.50;97751.34;1806183;78;20920;-61
2021/01/21 11:39:31;;;;;;;2.95;1.40;;;;;;;8.72;53.41;97755.93;1805741;79;20987;-61
2021/01/21 11:41:59;;;;;;;1.98;1.57;;;;;;;8.74;53.42;97738.80;1805722;79;21192;-62
2021/01/21 11:44:26;;;;;;;3.33;2.17;;;;;;;8.72;53.27;97738.53;1805681;79;21389;-63
2021/01/21 11:46:53;;;;;;;2.17;1.87;;;;;;;8.72;53.80;97729.16;1805716;79;20870;-62
2021/01/21 11:49:21;;;;;;;3.58;1.65;;;;;;;8.67;53.61;97749.10;1805443;79;20969;-62
2021/01/21 11:51:48;;;;;;;1.70;1.45;;;;;;;8.65;53.36;97737.63;1805765;79;21011;-63
2021/01/21 11:54:17;;;;;;;1.80;1.30;;;;;;;8.65;53.75;97744.32;1805680;79;21061;-61
2021/01/21 11:56:45;;;;;;;2.95;1.50;;;;;;;8.65;54.46;97753.69;1805640;79;20928;-62
2021/01/21 11:59:13;;;;;;;5.55;2.27;;;;;;;8.67;53.73;97749.10;1805627;79;21038;-61
2021/01/21 12:01:41;;;;;;;2.47;2.05;;;;;;;8.72;54.13;97748.78;1805738;79;21011;-61
2021/01/21 12:04:10;;;;;;;2.37;1.70;;;;;;;8.72;54.15;97739.87;1805692;79;20991;-60
2021/01/21 12:06:37;;;;;;;2.15;1.65;;;;;;;8.76;54.33;97729.32;1805615;79;21186;-61
2021/01/21 12:09:04;;;;;;;3.10;1.80;;;;;;;8.77;54.82;97736.39;1805609;79;20916;-62
2021/01/21 12:11:34;;;;;;;3.47;2.20;;;;;;;8.79;54.06;97719.72;1805589;79;20951;-61
2021/01/21 12:14:02;;;;;;;4.58;2.40;;;;;;;8.85;54.26;97725.48;1805707;79;20964;-62
2021/01/21 12:16:29;;;;;;;3.35;2.05;;;;;;;8.88;53.87;97719.05;1805641;79;20972;-62
2021/01/21 12:18:57;;;;;;;2.90;1.80;;;;;;;8.93;54.14;97726.75;1805603;79;23499;-62
2021/01/21 12:21:25;;;;;;;2.72;2.00;;;;;;;8.95;53.76;97698.87;1805745;79;20921;-61
2021/01/21 12:23:52;;;;;;;2.40;2.00;;;;;;;8.97;54.13;97723.73;1805797;79;20987;-62
2021/01/21 12:26:20;;;;;;;3.37;1.90;;;;;;;8.99;53.95;97727.15;1805793;79;21601;-62
2021/01/21 12:28:48;;;;;;;2.08;1.80;;;;;;;8.99;53.90;97712.91;1805834;79;20920;-62
2021/01/21 12:31:16;;;;;;;2.83;1.90;;;;;;;8.98;54.11;97714.72;1805780;79;21333;-62
2021/01/21 12:33:47;;;;;;;3.98;1.80;;;;;;;9.00;54.28;97719.95;1805805;79;20925;-63
2021/01/21 12:36:14;;;;;;;3.12;1.98;;;;;;;8.96;54.28;97711.30;1809911;79;20873;-62
2021/01/21 12:38:42;;;;;;;4.03;2.30;;;;;;;8.95;54.42;97716.28;1814940;79;20928;-66
2021/01/21 12:41:09;;;;;;;4.70;2.00;;;;;;;8.92;54.55;97733.91;1815076;79;21393;-61
2021/01/21 12:43:37;;;;;;;3.95;2.60;;;;;;;8.89;54.71;97704.67;1814904;79;21376;-64
2021/01/21 12:46:06;;;;;;;2.60;2.40;;;;;;;8.87;54.68;97711.98;1814835;79;20936;-61
2021/01/21 12:48:34;;;;;;;5.50;2.52;;;;;;;8.79;55.06;97719.72;1814864;79;20912;-61
2021/01/21 12:51:01;;;;;;;3.27;2.42;;;;;;;8.75;55.03;97713.75;1814932;79;20999;-62
2021/01/21 12:53:30;;;;;;;4.67;2.58;;;;;;;8.71;54.99;97712.74;1814928;79;20985;-62
2021/01/21 12:55:59;;;;;;;3.05;2.12;;;;;;;8.64;55.37;97701.14;1814869;79;21197;-61
2021/01/21 12:58:29;;;;;;;2.45;2.10;;;;;;;8.64;55.48;97706.49;1814758;78;20939;-61
2021/01/21 13:00:58;;;;;;;2.35;1.80;;;;;;;8.62;55.51;97716.44;1814964;79;21046;-62
2021/01/21 13:03:27;;;;;;;3.83;2.58;;;;;;;8.60;55.68;97717.53;1814854;79;20917;-62
2021/01/21 13:05:56;;;;;;;3.30;2.15;;;;;;;8.57;55.54;97715.92;1814982;79;20920;-64
2021/01/21 13:08:23;;;;;;;3.27;1.75;;;;;;;8.56;56.08;97713.35;1814963;79;21443;-62
2021/01/21 13:10:51;;;;;;;2.45;1.65;;;;;;;8.49;55.67;97714.28;1814839;79;20968;-62
2021/01/21 13:13:18;;;;;;;3.52;2.20;;;;;;;8.51;55.69;97712.34;1814940;79;21000;-63
2021/01/21 13:15:46;;;;;;;1.90;1.70;;;;;;;8.52;55.85;97718.57;1814785;79;20917;-62
2021/01/21 13:18:15;;;;;;;2.12;1.92;;;;;;;8.50;55.96;97702.62;1815043;79;20928;-60
2021/01/21 13:20:43;;;;;;;3.10;2.45;;;;;;;8.51;56.08;97716.36;1814849;79;21346;-62
2021/01/21 13:23:13;;;;;;;2.30;1.98;;;;;;;8.47;55.86;97702.34;1814822;79;21426;-65
2021/01/21 13:25:42;;;;;;;2.65;1.90;;;;;;;8.44;55.75;97713.27;1814866;79;21015;-62
2021/01/21 13:28:10;;;;;;;4.53;2.77;;;;;;;8.39;55.72;97707.37;1814831;79;20988;-61
2021/01/21 13:30:37;;;;;;;2.52;2.15;;;;;;;8.39;56.19;97711.39;1814928;79;20865;-62
2021/01/21 13:33:06;;;;;;;4.05;2.40;;;;;;;8.35;56.21;97704.53;1814896;79;21374;-64
2021/01/21 13:35:35;;;;;;;3.90;2.08;;;;;;;8.32;56.26;97710.98;1814216;78;20948;-63
2021/01/21 13:38:02;;;;;;;1.90;1.70;;;;;;;8.28;56.44;97705.95;1805729;79;20952;-62
2021/01/21 13:40:31;;;;;;;1.98;1.60;;;;;;;8.22;56.84;97705.89;1805681;79;21004;-61
2021/01/21 13:42:59;;;;;;;1.57;1.40;;;;;;;8.16;56.88;97699.63;1805851;79;21012;-61
2021/01/21 13:45:26;;;;;;;2.45;1.95;;;;;;;8.14;57.10;97703.75;1805707;79;21356;-62
2021/01/21 13:47:54;;;;;;;3.05;1.47;;;;;;;8.13;57.22;97698.51;1805697;79;20932;-63
2021/01/21 13:50:23;;;;;;;4.08;1.50;;;;;;;8.11;56.93;97683.91;1805654;79;20983;-64
2021/01/21 13:52:51;;;;;;;2.22;1.65;;;;;;;8.11;57.02;97675.04;1805786;79;20988;-60
2021/01/21 13:55:19;;;;;;;1.82;1.72;;;;;;;8.09;57.25;97676.98;1805750;79;21441;-60
2021/01/21 13:57:48;;;;;;;2.92;1.70;;;;;;;8.06;57.27;97675.86;1805715;79;21247;-63